KGUS/GUS METAR and TAF weather

Enter ICAO airport designator
Station Type Date Time Source
KGUS METAR 2020/04/05 15:56 UTC NOAA

KGUS 051556Z AUTO 03006KT 10SM OVC018 08/07 A3016 RMK AO2 SLP221 T00820070 $


Station Type Date Time Source
KGUS Decoded METAR 2020/04/05 15:56 UTC NOAA

Grissom Air Force Base / Peru, IN, United States (KGUS) 40-39N 086-09W
Apr 05, 2020 - 11:56 AM EDT / 2020.04.05 1556 UTC
Wind: from the NNE (030 degrees) at 7 MPH (6 KT):0
Visibility: 10 mile(s):0
Sky conditions: overcast
Temperature: 46.8 F (8.2 C)
Dew Point: 44.6 F (7.0 C)
Relative Humidity: 92%
Pressure (altimeter): 30.16 in. Hg (1021 hPa)
ob: KGUS 051556Z AUTO 03006KT 10SM OVC018 08/07 A3016 RMK AO2 SLP221 T00820070
cycle: 16

Station Type Date Time Source
KGUS TAF 2020/04/05 14:26 UTC NOAA

TAF
AMD KGUS 051413Z 0514/0617 35006KT 9999 OVC016 QNH3009INS
BECMG 0516/0517 02006KT 9999 OVC020 QNH3012INS
BECMG 0519/0520 VRB06KT 9999 FEW020 QNH3006INS TX08/0520Z TNM01/0611Z

Example: see airport list